Time;durP1;ratioP1;P1;durP2;ratioP2;P2;SDS_P1;SDS_P2;PMS_P1;PMS_P2;Temp;Humidity;BMP_temperature;BMP_pressure;BME280_temperature;BME280_humidity;BME280_pressure;Samples;Min_cycle;Max_cycle;Signal;HPM_P1;HPM_P2
2022/09/10 00:00:37;;;;;;;8.80;3.80;;;;;;;13.46;100.00;100079.91;5011065;28;20060;-69
2022/09/10 00:03:04;;;;;;;6.78;4.18;;;;;;;13.44;100.00;100082.97;5011247;28;20121;-70
2022/09/10 00:05:36;;;;;;;4.45;3.95;;;;;;;13.42;100.00;100086.00;4994420;28;20034;-70
2022/09/10 00:08:03;;;;;;;6.68;3.42;;;;;;;13.39;100.00;100086.59;5013856;28;20064;-69
2022/09/10 00:10:28;;;;;;;5.28;3.63;;;;;;;13.37;100.00;100093.47;4997123;28;20045;-72
2022/09/10 00:12:54;;;;;;;10.57;3.85;;;;;;;13.33;100.00;100087.72;5013077;28;20121;-71
2022/09/10 00:15:20;;;;;;;7.10;3.78;;;;;;;13.31;100.00;100092.69;4995556;28;20038;-71
2022/09/10 00:17:46;;;;;;;9.65;3.90;;;;;;;13.27;100.00;100092.47;5004203;28;20034;-71
2022/09/10 00:20:11;;;;;;;7.72;4.40;;;;;;;13.26;100.00;100090.81;4996041;28;20088;-71
2022/09/10 00:22:37;;;;;;;8.98;4.47;;;;;;;13.24;100.00;100083.97;4995965;28;20030;-72
2022/09/10 00:25:02;;;;;;;8.35;4.05;;;;;;;13.24;100.00;100089.47;5006808;28;20034;-71
2022/09/10 00:27:28;;;;;;;9.93;4.13;;;;;;;13.27;100.00;100088.88;5010811;28;20022;-72
2022/09/10 00:29:53;;;;;;;6.97;4.30;;;;;;;13.27;100.00;100088.88;5011937;28;20035;-71
2022/09/10 00:32:22;;;;;;;9.15;4.60;;;;;;;13.26;100.00;100095.50;5009234;28;20023;-72
2022/09/10 00:34:48;;;;;;;7.97;5.28;;;;;;;13.23;100.00;100085.09;5012287;28;20030;-73
2022/09/10 00:37:15;;;;;;;10.55;4.40;;;;;;;13.21;100.00;100079.06;4992285;28;20467;-72
2022/09/10 00:39:40;;;;;;;8.30;4.32;;;;;;;13.18;100.00;100096.13;4996945;28;20014;-72
2022/09/10 00:42:10;;;;;;;11.60;4.40;;;;;;;13.14;100.00;100084.09;5007272;28;20034;-71
2022/09/10 00:44:42;;;;;;;10.88;4.45;;;;;;;13.09;100.00;100087.72;5003438;28;20022;-70
2022/09/10 00:47:17;;;;;;;8.18;4.20;;;;;;;13.05;100.00;100082.00;5011337;28;20375;-70
2022/09/10 00:49:47;;;;;;;7.22;4.20;;;;;;;13.04;100.00;100082.25;5012780;28;20025;-71
2022/09/10 00:52:12;;;;;;;8.57;4.55;;;;;;;13.01;100.00;100080.94;5014457;28;20033;-71
2022/09/10 00:54:41;;;;;;;4.47;4.07;;;;;;;13.01;100.00;100086.44;5016488;28;20034;-70
2022/09/10 00:57:11;;;;;;;7.55;4.07;;;;;;;13.02;100.00;100082.56;5014051;28;20046;-71
2022/09/10 00:59:42;;;;;;;8.10;3.83;;;;;;;13.01;100.00;100096.56;5024131;28;20037;-70
2022/09/10 01:02:08;;;;;;;4.32;3.25;;;;;;;13.02;100.00;100088.03;5015082;28;20033;-70
2022/09/10 01:04:34;;;;;;;5.88;3.50;;;;;;;12.98;100.00;100087.03;5011512;28;20089;-69
2022/09/10 01:07:00;;;;;;;9.57;3.72;;;;;;;12.94;100.00;100085.97;5000679;28;20018;-70
2022/09/10 01:09:27;;;;;;;5.68;3.30;;;;;;;12.88;100.00;100098.09;5016792;28;20029;-70
2022/09/10 01:12:01;;;;;;;5.57;3.33;;;;;;;12.86;100.00;100100.28;5006330;28;20047;-71
2022/09/10 01:15:05;;;;;;;5.63;3.22;;;;;;;12.73;100.00;100086.16;5014508;28;20036;-69
2022/09/10 01:17:51;;;;;;;6.50;3.63;;;;;;;12.84;100.00;100099.78;4981398;28;20128;-70
2022/09/10 01:20:35;;;;;;;10.48;4.22;;;;;;;12.93;100.00;100114.50;5011091;28;20432;-70
2022/09/10 01:23:13;;;;;;;8.35;4.68;;;;;;;13.04;100.00;100115.22;5012567;28;20436;-70
2022/09/10 01:25:48;;;;;;;4.53;3.63;;;;;;;13.09;100.00;100121.47;5015076;28;20022;-71
2022/09/10 01:28:44;;;;;;;6.35;3.80;;;;;;;13.17;100.00;100120.03;5033192;28;20033;-71
2022/09/10 01:31:26;;;;;;;8.02;4.03;;;;;;;13.22;100.00;100119.97;5016106;28;20037;-73
2022/09/10 01:34:01;;;;;;;8.95;4.30;;;;;;;13.22;100.00;100119.16;5008994;28;20022;-72
2022/09/10 01:36:32;;;;;;;9.27;3.97;;;;;;;13.14;100.00;100117.03;5014145;28;20029;-71
2022/09/10 01:38:59;;;;;;;10.00;5.50;;;;;;;13.04;100.00;100107.81;5015301;28;20022;-70
2022/09/10 01:41:27;;;;;;;7.78;4.10;;;;;;;12.87;100.00;100107.44;5000028;28;20033;-73
2022/09/10 01:43:52;;;;;;;8.27;4.72;;;;;;;12.83;100.00;100111.84;5016190;28;20026;-71
2022/09/10 01:46:33;;;;;;;8.02;4.60;;;;;;;12.75;100.00;100110.56;5002126;28;20430;-71
2022/09/10 01:49:18;;;;;;;7.78;4.68;;;;;;;12.68;100.00;100110.88;5016788;28;20026;-71
2022/09/10 01:51:52;;;;;;;8.55;5.00;;;;;;;12.64;100.00;100104.31;5016678;28;20030;-71
2022/09/10 01:54:49;;;;;;;;;;;;;;;12.61;100.00;100109.59;5014890;28;20041;-71
2022/09/10 01:57:47;;;;;;;9.23;4.88;;;;;;;12.57;100.00;100112.06;5013266;28;19917;-72
2022/09/10 02:00:16;;;;;;;14.20;5.32;;;;;;;12.53;100.00;100109.09;5013240;28;20049;-71
2022/09/10 02:02:57;;;;;;;11.10;4.57;;;;;;;12.49;100.00;100116.25;5023686;28;20038;-71
2022/09/10 02:05:26;;;;;;;11.75;5.10;;;;;;;12.46;100.00;100122.31;5017011;28;20026;-71
2022/09/10 02:07:57;;;;;;;8.75;4.80;;;;;;;12.43;100.00;100127.56;4996896;28;20057;-71
2022/09/10 02:10:23;;;;;;;7.05;5.10;;;;;;;12.47;100.00;100134.09;5015608;28;20072;-72
2022/09/10 02:12:49;;;;;;;11.55;5.22;;;;;;;12.51;100.00;100135.16;5011613;28;20037;-70
2022/09/10 02:15:17;;;;;;;11.95;5.70;;;;;;;12.63;100.00;100124.66;4999630;28;20030;-71
2022/09/10 02:17:45;;;;;;;8.50;5.72;;;;;;;12.74;100.00;100126.19;5015432;28;20025;-71
2022/09/10 02:20:13;;;;;;;8.57;5.47;;;;;;;12.84;100.00;100124.47;5012700;28;20033;-70
2022/09/10 02:22:43;;;;;;;11.50;6.55;;;;;;;12.94;100.00;100135.34;5013965;28;20512;-71
2022/09/10 02:25:08;;;;;;;9.52;5.78;;;;;;;12.97;100.00;100137.53;5013993;28;20026;-71
2022/09/10 02:27:34;;;;;;;9.52;5.35;;;;;;;12.89;100.00;100121.66;5013794;28;20073;-71
2022/09/10 02:30:00;;;;;;;17.85;6.38;;;;;;;12.89;100.00;100132.66;4981798;28;20662;-72
2022/09/10 02:32:25;;;;;;;7.22;5.20;;;;;;;12.77;100.00;100124.81;4999206;28;20045;-72
2022/09/10 02:34:51;;;;;;;14.02;6.07;;;;;;;12.74;100.00;100131.69;5001711;28;20036;-72
2022/09/10 02:37:17;;;;;;;7.95;5.60;;;;;;;12.68;100.00;100126.53;4998561;28;20168;-71
2022/09/10 02:39:44;;;;;;;12.73;6.05;;;;;;;12.64;100.00;100131.75;4992063;28;20039;-72
2022/09/10 02:42:11;;;;;;;13.43;6.90;;;;;;;12.58;100.00;100139.22;4993197;28;20085;-70
2022/09/10 02:44:36;;;;;;;20.23;5.97;;;;;;;12.52;100.00;100136.81;5016330;28;20038;-73
2022/09/10 02:47:02;;;;;;;9.20;6.03;;;;;;;12.46;100.00;100140.69;5000843;28;20026;-73
2022/09/10 02:49:28;;;;;;;14.10;6.15;;;;;;;12.44;100.00;100145.63;4984181;28;20033;-73
2022/09/10 02:51:54;;;;;;;10.85;5.68;;;;;;;12.42;100.00;100153.34;4980251;28;20263;-72
2022/09/10 02:54:19;;;;;;;7.97;5.97;;;;;;;12.33;100.00;100142.16;4990221;28;20052;-73
2022/09/10 02:56:47;;;;;;;10.25;6.00;;;;;;;12.38;100.00;100151.16;4999430;28;20472;-72
2022/09/10 02:59:13;;;;;;;11.30;5.47;;;;;;;12.35;100.00;100139.94;5012564;28;20046;-73
2022/09/10 03:01:38;;;;;;;9.52;5.57;;;;;;;12.32;100.00;100141.31;4984302;28;20065;-72
2022/09/10 03:04:04;;;;;;;9.65;5.30;;;;;;;12.30;100.00;100148.22;5001002;28;20030;-72
2022/09/10 03:06:30;;;;;;;8.90;5.18;;;;;;;12.25;100.00;100146.31;5017088;28;20083;-73
2022/09/10 03:08:56;;;;;;;9.75;5.50;;;;;;;12.15;100.00;100141.72;5014412;28;20056;-71
2022/09/10 03:11:22;;;;;;;9.40;5.22;;;;;;;12.12;100.00;100149.69;4983294;28;20030;-72
2022/09/10 03:13:49;;;;;;;7.38;5.03;;;;;;;12.08;100.00;100140.41;5015200;28;20388;-72
2022/09/10 03:16:15;;;;;;;9.98;4.70;;;;;;;12.02;100.00;100145.91;4996313;28;20037;-71
2022/09/10 03:18:42;;;;;;;5.45;3.88;;;;;;;11.99;100.00;100145.66;5014910;28;20040;-72
2022/09/10 03:21:17;;;;;;;4.63;3.38;;;;;;;12.03;100.00;100155.75;5014192;28;20060;-71
2022/09/10 03:23:44;;;;;;;5.78;3.17;;;;;;;12.09;100.00;100153.81;5011877;28;20376;-71
2022/09/10 03:26:13;;;;;;;7.03;3.60;;;;;;;12.16;100.00;100158.97;4996605;28;20768;-73
2022/09/10 03:28:40;;;;;;;7.80;3.90;;;;;;;12.18;100.00;100162.28;5012122;28;20716;-72
2022/09/10 03:31:06;;;;;;;9.38;3.85;;;;;;;12.16;100.00;100148.00;5017178;28;20093;-74
2022/09/10 03:33:33;;;;;;;7.78;4.07;;;;;;;12.14;100.00;100147.47;4998984;28;20385;-71
2022/09/10 03:35:59;;;;;;;5.65;4.10;;;;;;;12.06;100.00;100151.63;5012521;28;20113;-71
2022/09/10 03:38:26;;;;;;;6.70;4.57;;;;;;;11.95;100.00;100141.84;5012627;28;20053;-71
2022/09/10 03:40:52;;;;;;;8.80;4.63;;;;;;;11.90;100.00;100147.28;4998486;28;20038;-70
2022/09/10 03:43:19;;;;;;;7.43;4.72;;;;;;;11.84;100.00;100151.97;5011881;28;20022;-70
2022/09/10 03:45:47;;;;;;;7.65;4.55;;;;;;;11.78;100.00;100139.41;5014033;28;20032;-71
2022/09/10 03:48:12;;;;;;;15.35;4.57;;;;;;;11.78;100.00;100153.09;5012268;28;20041;-71
2022/09/10 03:50:38;;;;;;;7.03;4.38;;;;;;;11.67;100.00;100136.72;4998661;28;20034;-72
2022/09/10 03:53:03;;;;;;;6.22;3.70;;;;;;;11.70;100.00;100144.38;5001412;28;20062;-72
2022/09/10 03:55:29;;;;;;;6.85;3.85;;;;;;;11.70;100.00;100149.84;4999383;28;20036;-71
2022/09/10 03:57:55;;;;;;;10.10;4.13;;;;;;;11.66;100.00;100140.53;5013548;28;20060;-72
2022/09/10 04:00:20;;;;;;;6.38;3.53;;;;;;;11.60;100.00;100141.69;4962611;28;20030;-70
2022/09/10 04:02:47;;;;;;;14.68;4.60;;;;;;;11.56;100.00;100150.72;4962886;28;20093;-70
2022/09/10 04:05:13;;;;;;;7.43;4.45;;;;;;;11.50;100.00;100142.53;4973979;28;20080;-72
2022/09/10 04:07:38;;;;;;;10.85;5.03;;;;;;;11.50;100.00;100152.66;5004784;28;20046;-75
2022/09/10 04:10:04;;;;;;;7.93;4.53;;;;;;;11.47;100.00;100147.75;4984491;28;20449;-76
2022/09/10 04:12:30;;;;;;;9.32;5.10;;;;;;;11.39;100.00;100131.88;4976683;28;20034;-76
2022/09/10 04:14:55;;;;;;;6.03;4.07;;;;;;;11.39;100.00;100134.63;4982669;28;20026;-72
2022/09/10 04:17:21;;;;;;;6.55;4.32;;;;;;;11.48;100.00;100146.66;4978280;28;20053;-73
2022/09/10 04:19:46;;;;;;;6.47;3.90;;;;;;;11.62;100.00;100149.59;5003348;28;20073;-77
2022/09/10 04:22:13;;;;;;;3.30;2.75;;;;;;;11.69;100.00;100156.41;4999862;28;20036;-72
2022/09/10 04:24:39;;;;;;;4.57;3.13;;;;;;;11.73;100.00;100155.88;5010150;28;20026;-71
2022/09/10 04:27:05;;;;;;;4.30;3.13;;;;;;;11.79;100.00;100152.81;4996719;28;20030;-71
2022/09/10 04:29:31;;;;;;;3.65;2.60;;;;;;;11.87;100.00;100156.88;4996863;28;20053;-72
2022/09/10 04:31:57;;;;;;;4.97;2.72;;;;;;;11.94;100.00;100151.16;4979567;28;20029;-72
2022/09/10 04:34:22;;;;;;;7.18;3.28;;;;;;;11.96;100.00;100152.50;4995293;28;20037;-71
2022/09/10 04:36:48;;;;;;;4.65;2.50;;;;;;;12.01;100.00;100152.47;4997449;28;20033;-72
2022/09/10 04:39:15;;;;;;;4.68;2.80;;;;;;;12.07;100.00;100155.19;5012661;28;20040;-71
2022/09/10 04:41:41;;;;;;;2.47;2.20;;;;;;;12.11;100.00;100168.06;4984563;28;20128;-71
2022/09/10 04:44:07;;;;;;;6.57;2.85;;;;;;;12.19;100.00;100163.88;4989281;28;20034;-70
2022/09/10 04:46:32;;;;;;;2.95;2.50;;;;;;;12.33;100.00;100164.91;4994121;28;20428;-71
2022/09/10 04:48:59;;;;;;;2.38;2.17;;;;;;;12.46;100.00;100173.59;4995805;28;20089;-72
2022/09/10 04:51:24;;;;;;;6.38;2.90;;;;;;;12.65;100.00;100177.31;4997479;28;20092;-71
2022/09/10 04:53:51;;;;;;;3.78;2.50;;;;;;;12.80;100.00;100183.78;4997204;28;20056;-71
2022/09/10 04:56:17;;;;;;;3.20;2.38;;;;;;;12.90;100.00;100178.19;5000765;28;20478;-72
2022/09/10 04:58:42;;;;;;;3.08;2.28;;;;;;;12.90;100.00;100178.19;5013309;28;20050;-72
2022/09/10 05:01:08;;;;;;;2.63;2.17;;;;;;;12.86;100.00;100180.69;4982373;28;20045;-71
2022/09/10 05:03:34;;;;;;;2.97;2.33;;;;;;;12.88;100.00;100186.72;5014079;28;20046;-72
2022/09/10 05:06:00;;;;;;;3.08;1.92;;;;;;;12.93;100.00;100186.66;5014013;28;20073;-72
2022/09/10 05:08:25;;;;;;;3.97;2.35;;;;;;;13.01;100.00;100188.00;4997896;28;20088;-71
2022/09/10 05:10:51;;;;;;;6.20;2.70;;;;;;;13.15;100.00;100195.56;4989385;28;20045;-72
2022/09/10 05:13:17;;;;;;;4.05;2.78;;;;;;;13.23;100.00;100200.44;5005770;28;20049;-71
2022/09/10 05:15:42;;;;;;;2.90;2.05;;;;;;;13.32;100.00;100200.63;5012485;28;20122;-72
2022/09/10 05:18:08;;;;;;;2.70;2.10;;;;;;;13.36;100.00;100201.69;4986726;28;20980;-71
2022/09/10 05:20:34;;;;;;;3.08;2.13;;;;;;;13.41;100.00;100210.69;4980967;28;20094;-71
2022/09/10 05:23:00;;;;;;;7.82;2.70;;;;;;;13.51;100.00;100218.03;4992714;28;20030;-70
2022/09/10 05:25:26;;;;;;;5.15;2.55;;;;;;;13.63;100.00;100220.38;4997599;28;20567;-71
2022/09/10 05:27:52;;;;;;;5.00;2.95;;;;;;;13.74;100.00;100221.91;4998365;28;20026;-70
2022/09/10 05:30:18;;;;;;;5.05;2.30;;;;;;;13.83;100.00;100218.47;5008341;28;20026;-72
2022/09/10 05:32:44;;;;;;;2.92;1.90;;;;;;;13.82;100.00;100214.13;5000870;28;20030;-72
2022/09/10 05:35:10;;;;;;;4.20;2.28;;;;;;;13.94;100.00;100225.50;5020851;28;20112;-70
2022/09/10 05:37:35;;;;;;;3.85;2.30;;;;;;;13.99;100.00;100236.44;4998487;28;20113;-72
2022/09/10 05:40:08;;;;;;;3.13;2.15;;;;;;;14.01;100.00;100223.22;5000136;28;20109;-72
2022/09/10 05:42:34;;;;;;;2.20;1.80;;;;;;;14.07;100.00;100227.53;4991636;28;20022;-70
2022/09/10 05:45:00;;;;;;;3.80;2.08;;;;;;;14.10;100.00;100232.44;4986099;28;20034;-70
2022/09/10 05:47:27;;;;;;;3.88;2.17;;;;;;;14.09;100.00;100227.25;4996194;28;20021;-72
2022/09/10 05:49:52;;;;;;;4.53;2.40;;;;;;;14.07;100.00;100233.03;4968170;28;20125;-71
2022/09/10 05:52:17;;;;;;;2.20;1.88;;;;;;;14.10;100.00;100246.19;4980836;28;20061;-71
2022/09/10 05:54:43;;;;;;;5.03;2.30;;;;;;;14.16;100.00;100255.19;4988703;28;20038;-71
2022/09/10 05:57:09;;;;;;;3.72;2.53;;;;;;;14.19;100.00;100260.09;4990634;28;20049;-71
2022/09/10 05:59:35;;;;;;;8.20;2.42;;;;;;;14.23;100.00;100260.34;5021799;28;20413;-72
2022/09/10 06:02:01;;;;;;;4.43;2.40;;;;;;;14.31;99.30;100265.22;5011394;28;20049;-72
2022/09/10 06:04:26;;;;;;;5.25;2.22;;;;;;;14.30;99.03;100258.06;5022466;28;20499;-71
2022/09/10 06:06:53;;;;;;;4.70;2.05;;;;;;;14.34;98.74;100267.38;4981175;28;20030;-70
2022/09/10 06:09:20;;;;;;;4.90;2.30;;;;;;;14.32;98.36;100264.06;5013549;28;20025;-69
2022/09/10 06:11:49;;;;;;;5.60;2.25;;;;;;;14.27;98.54;100275.16;5018403;28;20084;-73
2022/09/10 06:14:14;;;;;;;4.20;2.03;;;;;;;14.25;98.38;100272.69;5018973;28;20045;-74
2022/09/10 06:16:40;;;;;;;2.90;2.03;;;;;;;14.27;98.31;100281.47;5023970;28;20034;-75
2022/09/10 06:19:07;;;;;;;4.40;2.17;;;;;;;14.28;97.95;100274.03;5020075;28;20470;-75
2022/09/10 06:21:32;;;;;;;4.18;2.40;;;;;;;14.31;97.49;100279.78;5022891;28;20394;-74
2022/09/10 06:23:58;;;;;;;5.07;2.15;;;;;;;14.29;97.23;100279.25;5009515;28;20089;-75
2022/09/10 06:26:24;;;;;;;4.82;2.75;;;;;;;14.22;97.43;100288.97;5013363;28;20053;-74
2022/09/10 06:28:49;;;;;;;3.22;2.03;;;;;;;14.11;97.66;100289.06;5019392;28;20042;-75
2022/09/10 06:31:18;;;;;;;2.70;2.20;;;;;;;14.05;97.96;100290.25;5015662;28;20022;-74
2022/09/10 06:33:45;;;;;;;3.22;2.28;;;;;;;13.96;98.19;100289.28;4995558;28;20096;-76
2022/09/10 06:36:12;;;;;;;4.72;2.58;;;;;;;13.94;98.62;100299.72;5015619;28;20034;-75
2022/09/10 06:38:38;;;;;;;5.18;2.63;;;;;;;13.89;98.36;100297.03;5020802;28;20169;-76
2022/09/10 06:41:06;;;;;;;3.97;2.20;;;;;;;13.85;98.64;100298.72;5019572;28;20467;-76
2022/09/10 06:43:35;;;;;;;3.78;2.17;;;;;;;13.86;98.47;100309.44;5017596;28;20507;-77
2022/09/10 06:46:04;;;;;;;4.68;2.45;;;;;;;13.86;99.00;100314.13;5019514;28;20033;-77
2022/09/10 06:48:30;;;;;;;3.00;2.30;;;;;;;13.83;98.57;100310.00;5022782;28;20027;-77
2022/09/10 06:51:00;;;;;;;8.40;3.00;;;;;;;13.84;98.32;100322.63;5000062;28;20399;-74
2022/09/10 06:53:32;;;;;;;3.53;2.25;;;;;;;13.82;98.25;100324.06;4991725;28;20041;-75
2022/09/10 06:55:59;;;;;;;3.67;2.20;;;;;;;13.79;98.34;100331.75;5011891;28;20026;-73
2022/09/10 06:58:24;;;;;;;2.92;2.08;;;;;;;13.77;98.50;100339.47;5006086;28;20061;-73
2022/09/10 07:00:51;;;;;;;4.72;2.13;;;;;;;13.83;98.67;100339.41;5001360;28;20041;-70
2022/09/10 07:03:18;;;;;;;3.85;2.10;;;;;;;13.85;98.74;100348.19;5006399;28;20053;-71
2022/09/10 07:05:44;;;;;;;2.83;2.03;;;;;;;13.86;98.68;100347.09;5014825;28;20032;-72
2022/09/10 07:08:14;;;;;;;3.22;2.03;;;;;;;13.88;98.69;100356.69;4998512;28;20042;-69
2022/09/10 07:10:41;;;;;;;2.50;1.63;;;;;;;13.94;98.21;100344.53;5017333;28;20025;-71
2022/09/10 07:13:07;;;;;;;2.85;2.05;;;;;;;14.02;98.41;100356.00;4996283;28;21283;-71
2022/09/10 07:15:33;;;;;;;7.70;2.40;;;;;;;14.16;98.13;100356.13;4994532;28;21096;-70
2022/09/10 07:17:59;;;;;;;3.60;2.28;;;;;;;14.24;97.14;100358.25;5011398;28;20088;-71
2022/09/10 07:20:26;;;;;;;3.75;2.00;;;;;;;14.31;97.02;100353.22;5014080;28;20041;-71
2022/09/10 07:22:55;;;;;;;7.85;1.83;;;;;;;14.43;97.14;100355.56;5003132;28;20101;-71
2022/09/10 07:25:25;;;;;;;3.17;2.20;;;;;;;14.52;96.38;100358.47;4993303;28;20025;-71
2022/09/10 07:27:51;;;;;;;8.15;2.33;;;;;;;14.62;96.66;100363.88;5001376;28;20691;-71
2022/09/10 07:30:17;;;;;;;3.40;2.08;;;;;;;14.69;95.90;100367.09;5011535;28;20045;-72
2022/09/10 07:32:44;;;;;;;4.22;1.80;;;;;;;14.75;95.21;100365.09;5005051;28;20041;-71
2022/09/10 07:35:10;;;;;;;4.15;2.20;;;;;;;14.87;95.00;100367.41;4982914;28;20036;-72
2022/09/10 07:37:37;;;;;;;4.72;1.88;;;;;;;14.98;95.23;100375.22;5011182;28;20037;-70
2022/09/10 07:40:04;;;;;;;8.65;2.55;;;;;;;15.09;94.46;100381.41;5011375;28;20061;-71
2022/09/10 07:42:29;;;;;;;4.25;1.60;;;;;;;15.17;93.63;100372.47;5012852;28;20094;-70
2022/09/10 07:44:54;;;;;;;3.22;1.80;;;;;;;15.27;93.72;100379.75;4996414;28;20204;-72
2022/09/10 07:47:20;;;;;;;1.80;1.08;;;;;;;15.44;93.56;100379.22;5011707;28;20026;-70
2022/09/10 07:49:45;;;;;;;2.63;1.52;;;;;;;15.59;92.90;100375.41;5012350;28;20041;-70
2022/09/10 07:52:11;;;;;;;1.60;1.25;;;;;;;15.78;91.80;100380.91;5007825;28;20030;-72
2022/09/10 07:54:37;;;;;;;1.75;1.10;;;;;;;15.99;91.02;100372.25;5008356;28;20034;-71
2022/09/10 07:57:03;;;;;;;1.83;1.05;;;;;;;16.21;90.22;100380.69;5008240;28;20066;-71
2022/09/10 07:59:29;;;;;;;1.30;1.10;;;;;;;16.49;88.83;100375.19;4973078;28;20074;-72
2022/09/10 08:01:56;;;;;;;0.88;0.80;;;;;;;16.72;87.56;100381.59;5016918;28;20034;-71
2022/09/10 08:04:22;;;;;;;1.10;0.80;;;;;;;17.03;86.47;100388.44;5018427;28;20034;-71
2022/09/10 08:06:47;;;;;;;0.70;0.70;;;;;;;17.59;84.29;100384.34;5019146;28;20017;-71
2022/09/10 08:09:13;;;;;;;1.98;0.88;;;;;;;18.57;80.78;100384.53;5007107;28;20029;-71
2022/09/10 08:11:39;;;;;;;2.88;1.05;;;;;;;19.19;76.58;100388.28;5022087;28;20032;-72
2022/09/10 08:14:05;;;;;;;2.00;0.82;;;;;;;19.39;75.45;100391.56;5016362;28;20040;-71
2022/09/10 08:16:32;;;;;;;1.98;0.52;;;;;;;19.83;74.66;100397.91;5019993;28;20536;-72
2022/09/10 08:18:59;;;;;;;1.05;0.50;;;;;;;20.24;73.60;100390.94;5000735;28;20042;-73
2022/09/10 08:21:25;;;;;;;0.47;0.47;;;;;;;20.04;73.59;100396.06;4989493;28;20042;-75
2022/09/10 08:23:55;;;;;;;4.35;0.68;;;;;;;19.62;74.09;100398.53;5009638;28;20522;-74
2022/09/10 08:26:23;;;;;;;1.73;0.50;;;;;;;19.25;74.33;100402.81;5016284;28;20034;-73
2022/09/10 08:28:54;;;;;;;2.22;0.50;;;;;;;19.74;73.83;100408.16;5013996;28;20022;-71
2022/09/10 08:31:21;;;;;;;4.50;0.77;;;;;;;19.87;70.43;100408.03;5014939;28;20025;-70
2022/09/10 08:33:52;;;;;;;0.98;0.60;;;;;;;20.00;70.12;100414.50;5018707;28;20538;-72
2022/09/10 08:36:20;;;;;;;0.73;0.40;;;;;;;20.08;69.55;100423.13;5019618;28;20458;-72
2022/09/10 08:38:47;;;;;;;1.17;0.47;;;;;;;20.37;69.27;100420.44;5021779;28;20780;-72
2022/09/10 08:41:37;;;;;;;1.23;0.40;;;;;;;21.28;68.61;100422.91;5015732;28;20030;-72
2022/09/10 08:44:08;;;;;;;0.88;0.43;;;;;;;21.80;65.54;100423.66;5003351;28;20670;-73
2022/09/10 08:46:56;;;;;;;0.98;0.32;;;;;;;21.61;65.38;100433.31;5020818;28;20025;-70
2022/09/10 08:49:46;;;;;;;1.35;0.50;;;;;;;21.23;66.92;100427.84;5009694;28;20036;-70
2022/09/10 08:52:32;;;;;;;3.13;0.40;;;;;;;20.90;66.75;100428.56;5019978;28;20029;-71
2022/09/10 08:55:16;;;;;;;1.50;0.50;;;;;;;20.56;66.88;100438.69;5005904;28;20144;-71
2022/09/10 08:57:47;;;;;;;0.95;0.32;;;;;;;20.58;67.67;100439.16;5004739;28;20046;-71
2022/09/10 09:00:25;;;;;;;0.98;0.35;;;;;;;20.93;66.94;100436.22;5023473;28;20496;-71
2022/09/10 09:03:04;;;;;;;0.10;0.10;;;;;;;21.30;66.07;100432.88;5008776;28;20026;-71
2022/09/10 09:05:43;;;;;;;0.63;0.40;;;;;;;21.63;65.55;100448.88;4999892;28;20018;-70
2022/09/10 09:08:16;;;;;;;1.40;0.50;;;;;;;21.70;63.13;100435.19;5005552;28;20482;-72
2022/09/10 09:11:06;;;;;;;2.30;0.70;;;;;;;21.75;63.44;100449.72;5004636;28;20072;-74
2022/09/10 09:13:58;;;;;;;0.77;0.47;;;;;;;21.71;62.58;100448.78;5002048;28;20151;-73
2022/09/10 09:16:42;;;;;;;0.70;0.50;;;;;;;21.84;63.39;100454.41;4969580;28;20439;-72
2022/09/10 09:19:23;;;;;;;0.70;0.50;;;;;;;22.08;63.47;100446.13;5025349;28;20032;-72
2022/09/10 09:21:52;;;;;;;0.65;0.30;;;;;;;22.57;63.32;100447.41;5001451;28;20057;-72
2022/09/10 09:24:40;;;;;;;0.95;0.40;;;;;;;23.93;58.37;100458.38;5003265;28;20879;-73
2022/09/10 09:27:13;;;;;;;0.98;0.40;;;;;;;26.08;53.09;100462.69;5000497;28;20021;-73
2022/09/10 09:29:44;;;;;;;1.63;0.50;;;;;;;26.20;50.76;100458.91;5004040;28;20042;-71
2022/09/10 09:32:16;;;;;;;0.45;0.30;;;;;;;25.70;51.85;100457.88;5017450;28;20103;-71
2022/09/10 09:35:11;;;;;;;1.92;0.55;;;;;;;24.84;52.71;100465.97;4997765;28;20476;-71
2022/09/10 09:37:40;;;;;;;5.03;0.63;;;;;;;23.73;54.00;100455.41;4985674;28;20030;-73
2022/09/10 09:40:32;;;;;;;3.72;0.73;;;;;;;22.58;56.01;100457.41;4996858;28;20043;-70
2022/09/10 09:43:25;;;;;;;1.42;0.50;;;;;;;21.92;57.61;100467.44;4989450;28;20041;-71
2022/09/10 09:45:52;;;;;;;13.73;1.05;;;;;;;21.57;58.10;100470.50;5016990;28;20029;-72
2022/09/10 09:48:19;;;;;;;0.30;0.30;;;;;;;21.58;58.99;100461.81;4977672;28;20025;-73
2022/09/10 09:50:52;;;;;;;0.90;0.40;;;;;;;21.99;58.18;100464.91;4997678;28;20436;-73
2022/09/10 09:53:26;;;;;;;1.67;0.70;;;;;;;22.36;57.16;100467.81;5014521;28;20025;-73
2022/09/10 09:55:57;;;;;;;1.10;0.60;;;;;;;22.12;56.08;100472.13;5016203;28;20100;-72
2022/09/10 09:58:23;;;;;;;0.75;0.50;;;;;;;21.76;57.54;100468.03;5014573;28;20046;-72
2022/09/10 10:00:54;;;;;;;2.42;0.50;;;;;;;22.48;58.16;100473.38;4998919;28;20057;-72
2022/09/10 10:03:31;;;;;;;1.50;0.43;;;;;;;23.49;55.16;100473.03;4998634;28;20045;-73
2022/09/10 10:06:01;;;;;;;1.27;0.40;;;;;;;28.16;47.77;100480.28;5016995;28;20143;-72
2022/09/10 10:08:43;;;;;;;1.95;0.50;;;;;;;34.83;34.84;100496.25;5006964;28;20535;-72
2022/09/10 10:11:20;;;;;;;0.80;0.50;;;;;;;35.10;30.69;100493.31;5012261;28;20089;-72
2022/09/10 10:13:50;;;;;;;1.00;0.40;;;;;;;32.59;34.42;100495.22;4982651;28;20038;-73
2022/09/10 10:16:34;;;;;;;1.17;0.40;;;;;;;30.11;37.90;100494.53;4998749;28;20105;-72
2022/09/10 10:19:00;;;;;;;0.40;0.30;;;;;;;30.31;39.14;100490.53;4996118;28;20029;-74
2022/09/10 10:21:35;;;;;;;2.05;0.47;;;;;;;30.08;38.08;100484.06;4996575;28;20046;-74
2022/09/10 10:24:02;;;;;;;0.50;0.20;;;;;;;31.88;36.23;100483.13;4995026;28;20018;-71
2022/09/10 10:26:35;;;;;;;0.55;0.22;;;;;;;31.34;34.51;100488.97;4964477;28;20029;-73
2022/09/10 10:29:05;;;;;;;0.32;0.10;;;;;;;29.94;37.55;100489.66;4992898;28;20029;-72
2022/09/10 10:31:42;;;;;;;0.85;0.30;;;;;;;29.16;38.67;100485.16;5016499;28;20152;-73
2022/09/10 10:34:32;;;;;;;0.57;0.40;;;;;;;28.55;39.17;100485.50;5015588;28;20032;-74
2022/09/10 10:37:17;;;;;;;0.88;0.30;;;;;;;28.03;40.04;100480.53;4983934;28;20033;-72
2022/09/10 10:39:59;;;;;;;0.75;0.30;;;;;;;30.69;37.39;100483.34;5013843;28;20079;-73
2022/09/10 10:42:49;;;;;;;0.93;0.30;;;;;;;32.07;35.24;100507.28;5016741;28;20022;-72
2022/09/10 10:45:47;;;;;;;0.65;0.30;;;;;;;31.01;35.25;100505.13;5013527;28;20030;-71
2022/09/10 10:48:30;;;;;;;2.53;0.28;;;;;;;30.16;37.07;100496.16;4989602;28;20014;-72
2022/09/10 10:51:22;;;;;;;0.28;0.20;;;;;;;29.51;38.02;100489.44;4997558;28;20026;-73
2022/09/10 10:54:10;;;;;;;0.45;0.30;;;;;;;29.67;38.62;100492.75;5003825;28;20033;-74
2022/09/10 10:56:59;;;;;;;1.00;0.40;;;;;;;29.84;37.28;100487.59;4991801;28;20038;-73
2022/09/10 10:59:49;;;;;;;0.40;0.30;;;;;;;30.80;35.98;100486.19;5019629;28;20116;-73
2022/09/10 11:02:39;;;;;;;0.73;0.20;;;;;;;29.70;36.26;100479.84;5007419;28;20029;-73
2022/09/10 11:05:19;;;;;;;0.20;0.20;;;;;;;28.73;37.71;100478.03;5007390;28;20140;-72
2022/09/10 11:07:46;;;;;;;0.82;0.40;;;;;;;28.06;38.62;100472.53;4987875;28;20060;-72
2022/09/10 11:10:23;;;;;;;0.10;0.10;;;;;;;27.72;39.07;100472.53;4996242;28;20028;-73
2022/09/10 11:13:13;;;;;;;0.20;0.15;;;;;;;27.85;40.46;100471.06;5026147;28;20026;-74
2022/09/10 11:16:00;;;;;;;0.80;0.30;;;;;;;28.60;38.84;100468.25;5017237;28;20049;-74
2022/09/10 11:18:41;;;;;;;0.57;0.30;;;;;;;29.50;36.23;100476.56;5019295;28;20168;-73
2022/09/10 11:21:10;;;;;;;1.02;0.30;;;;;;;29.86;36.86;100476.72;5000619;28;20034;-73
2022/09/10 11:23:45;;;;;;;1.23;0.30;;;;;;;29.17;36.87;100479.16;4987144;28;20500;-73
2022/09/10 11:26:35;;;;;;;0.50;0.30;;;;;;;27.89;38.29;100485.16;4994404;28;20070;-73
2022/09/10 11:29:06;;;;;;;2.50;0.45;;;;;;;27.22;40.11;100479.06;5006807;28;20022;-73
2022/09/10 11:31:38;;;;;;;0.93;0.40;;;;;;;26.68;40.90;100485.78;4999810;28;20042;-72
2022/09/10 11:34:14;;;;;;;1.00;0.50;;;;;;;26.23;41.92;100486.19;4994935;28;20022;-71